Time;durP1;ratioP1;P1;durP2;ratioP2;P2;SDS_P1;SDS_P2;PMS_P1;PMS_P2;Temp;Humidity;BMP_temperature;BMP_pressure;BME280_temperature;BME280_humidity;BME280_pressure;Samples;Min_cycle;Max_cycle;Signal;HPM_P1;HPM_P2
2023/06/15 00:09:42;;;;;;;6.47;4.53;;;;;;;19.61;100.00;100846.94;20903730;28;20086;-75
2023/06/15 00:20:10;;;;;;;6.63;4.57;;;;;;;19.66;100.00;100852.19;20916429;28;20780;-74
2023/06/15 00:30:32;;;;;;;8.40;4.57;;;;;;;19.57;100.00;100829.16;20891509;28;20040;-74
2023/06/15 00:40:57;;;;;;;8.40;5.35;;;;;;;19.50;100.00;100830.19;20905284;28;20090;-74
2023/06/15 00:51:20;;;;;;;8.15;4.05;;;;;;;19.17;100.00;100828.13;20925911;28;20052;-75
2023/06/15 01:01:48;;;;;;;9.98;5.65;;;;;;;19.16;100.00;100829.94;20911541;28;21748;-74
2023/06/15 01:12:14;;;;;;;6.65;4.63;;;;;;;19.12;100.00;100809.47;20927515;28;20056;-75
2023/06/15 01:22:49;;;;;;;7.55;5.07;;;;;;;19.02;100.00;100822.16;20898724;28;20053;-75
2023/06/15 01:33:13;;;;;;;7.90;5.05;;;;;;;18.89;100.00;100809.91;20925671;28;20572;-74
2023/06/15 01:43:38;;;;;;;8.57;5.05;;;;;;;18.91;100.00;100799.16;20920867;28;20078;-75
2023/06/15 01:54:02;;;;;;;6.70;4.78;;;;;;;18.77;100.00;100790.53;20932880;28;20044;-74
2023/06/15 02:04:25;;;;;;;7.75;5.35;;;;;;;18.64;100.00;100798.72;20932925;28;20060;-74
2023/06/15 02:14:38;;;;;;;7.32;4.75;;;;;;;18.64;100.00;100797.88;20923389;28;20054;-75
2023/06/15 02:25:01;;;;;;;7.07;4.85;;;;;;;18.66;100.00;100804.94;20904879;28;20079;-74
2023/06/15 02:35:26;;;;;;;8.13;5.10;;;;;;;18.56;100.00;100789.09;20899662;28;20047;-75
2023/06/15 02:45:52;;;;;;;8.13;5.17;;;;;;;18.38;100.00;100792.03;20892495;28;20060;-75
2023/06/15 02:56:19;;;;;;;6.45;4.70;;;;;;;18.39;100.00;100791.09;20898568;28;20135;-75
2023/06/15 03:06:44;;;;;;;8.35;5.10;;;;;;;18.41;100.00;100808.00;20896809;28;20062;-74
2023/06/15 03:17:15;;;;;;;6.82;4.30;;;;;;;18.43;100.00;100824.94;20898414;28;20076;-74
2023/06/15 03:27:42;;;;;;;6.30;4.17;;;;;;;18.65;100.00;100835.28;20902796;28;20519;-75
2023/06/15 03:38:11;;;;;;;6.33;3.77;;;;;;;18.95;100.00;100849.94;20902912;28;20305;-74
2023/06/15 03:48:34;;;;;;;6.55;3.42;;;;;;;19.44;100.00;100843.66;20902219;28;20454;-74
2023/06/15 03:58:59;;;;;;;5.72;3.28;;;;;;;19.90;100.00;100857.94;20897056;28;20040;-74
2023/06/15 04:09:21;;;;;;;5.80;3.72;;;;;;;20.37;100.00;100856.03;20898320;28;20045;-75
2023/06/15 04:19:46;;;;;;;5.82;3.40;;;;;;;20.93;100.00;100845.75;20910537;28;20053;-75
2023/06/15 04:30:16;;;;;;;10.18;3.95;;;;;;;21.31;100.00;100864.44;20911815;28;20198;-76
2023/06/15 04:40:45;;;;;;;6.07;3.25;;;;;;;21.93;100.00;100866.25;20909759;28;20045;-75
2023/06/15 04:51:08;;;;;;;;;;;;;;;22.51;100.00;100857.34;20903757;28;20114;-75
2023/06/15 05:01:32;;;;;;;4.13;2.58;;;;;;;23.26;100.00;100858.41;20907551;28;19940;-75
2023/06/15 05:11:55;;;;;;;3.75;2.50;;;;;;;24.07;100.00;100845.56;20905866;28;20695;-75
2023/06/15 05:22:20;;;;;;;4.85;2.50;;;;;;;24.62;100.00;100850.53;20914663;28;20152;-75
2023/06/15 05:32:43;;;;;;;6.38;2.15;;;;;;;25.41;100.00;100859.81;20902166;28;20064;-75
2023/06/15 05:43:09;;;;;;;5.10;2.25;;;;;;;25.91;100.00;100848.59;20885823;28;20370;-76
2023/06/15 05:53:32;;;;;;;6.78;2.20;;;;;;;26.35;100.00;100849.22;20914024;28;20079;-75
2023/06/15 06:03:56;;;;;;;7.80;2.10;;;;;;;27.08;100.00;100865.44;20883828;28;20409;-76
2023/06/15 06:14:21;;;;;;;6.10;2.33;;;;;;;28.08;100.00;100853.78;20899532;28;20143;-76
2023/06/15 06:24:46;;;;;;;3.13;1.60;;;;;;;28.67;71.45;100849.53;20893085;28;20785;-77
2023/06/15 06:35:08;;;;;;;3.40;1.60;;;;;;;29.41;68.42;100868.72;20894978;28;20048;-75
2023/06/15 06:45:34;;;;;;;4.82;2.08;;;;;;;30.01;62.19;100881.28;20919246;28;20048;-76
2023/06/15 06:55:56;;;;;;;3.05;1.75;;;;;;;30.14;56.77;100872.31;20907261;28;20053;-77
2023/06/15 07:06:20;;;;;;;4.55;1.83;;;;;;;30.54;59.24;100857.03;20912092;28;20100;-75
2023/06/15 07:16:43;;;;;;;3.35;1.83;;;;;;;31.13;58.61;100840.28;20903488;28;20614;-76
2023/06/15 07:26:48;;;;;;;3.63;1.90;;;;;;;31.26;55.84;100838.44;20908558;28;20135;-75
2023/06/15 07:37:10;;;;;;;5.93;1.90;;;;;;;31.43;50.42;100844.59;20907291;28;20044;-75
2023/06/15 07:47:36;;;;;;;5.30;1.90;;;;;;;31.55;50.11;100857.38;20901039;28;20060;-75
2023/06/15 07:57:59;;;;;;;4.20;1.60;;;;;;;31.81;51.28;100878.28;20912160;28;20074;-75
2023/06/15 08:08:23;;;;;;;5.20;1.73;;;;;;;31.72;47.96;100869.88;20899786;28;20135;-74
2023/06/15 08:18:46;;;;;;;4.97;1.90;;;;;;;31.43;49.58;100880.97;20915340;28;20527;-76
2023/06/15 08:29:10;;;;;;;4.13;1.70;;;;;;;31.78;47.42;100872.16;20911970;28;20125;-77
2023/06/15 08:39:33;;;;;;;5.18;1.55;;;;;;;31.71;46.20;100877.19;20917409;28;20477;-75
2023/06/15 08:50:01;;;;;;;3.33;1.70;;;;;;;32.26;44.31;100857.75;20899979;28;20110;-75
2023/06/15 09:00:23;;;;;;;3.60;1.52;;;;;;;32.35;44.31;100848.88;20884590;28;20595;-74
2023/06/15 09:10:48;;;;;;;3.40;1.70;;;;;;;32.21;45.76;100859.06;20914865;28;20048;-75
2023/06/15 09:21:13;;;;;;;3.03;1.83;;;;;;;32.41;47.15;100872.16;20919069;28;20143;-75
2023/06/15 09:31:40;;;;;;;3.60;1.70;;;;;;;32.58;43.68;100873.63;20889110;28;20053;-74
2023/06/15 09:42:05;;;;;;;2.25;1.50;;;;;;;32.85;42.77;100857.91;20905368;28;20489;-74
2023/06/15 09:52:31;;;;;;;2.55;1.60;;;;;;;33.18;42.30;100844.38;20916794;28;20056;-74
2023/06/15 10:02:59;;;;;;;4.75;1.92;;;;;;;33.17;40.51;100837.16;20889899;28;20056;-75
2023/06/15 10:13:27;;;;;;;3.30;1.67;;;;;;;33.08;40.21;100829.66;20904237;28;20051;-76
2023/06/15 10:23:52;;;;;;;3.78;1.60;;;;;;;33.14;43.01;100799.09;20919378;28;20044;-76
2023/06/15 10:34:09;;;;;;;3.15;1.48;;;;;;;33.03;42.29;100790.81;20908495;28;20041;-76
2023/06/15 10:44:33;;;;;;;4.05;1.75;;;;;;;33.13;41.14;100777.31;20923201;28;20451;-78
2023/06/15 10:54:59;;;;;;;2.55;1.40;;;;;;;33.35;42.17;100769.16;20964028;28;20048;-76
2023/06/15 11:05:22;;;;;;;2.40;1.73;;;;;;;33.35;44.70;100754.59;20954892;28;20103;-78
2023/06/15 11:16:05;;;;;;;3.47;1.63;;;;;;;33.40;52.59;100744.19;20949853;28;20489;-78
2023/06/15 11:26:31;;;;;;;3.83;1.80;;;;;;;33.23;51.12;100745.50;20952300;28;20536;-78
2023/06/15 11:36:58;;;;;;;5.82;2.17;;;;;;;32.92;61.65;100737.94;20942833;28;20129;-79
2023/06/15 11:47:22;;;;;;;4.68;2.30;;;;;;;32.49;74.32;100713.88;20924595;28;20052;-77
2023/06/15 11:57:46;;;;;;;4.65;2.20;;;;;;;32.16;82.38;100706.38;20959295;28;20040;-78
2023/06/15 12:08:10;;;;;;;8.25;2.58;;;;;;;32.15;79.67;100690.97;20963506;28;20056;-78
2023/06/15 12:18:34;;;;;;;5.03;2.25;;;;;;;32.47;69.67;100684.91;20960377;28;20433;-77
2023/06/15 12:28:57;;;;;;;3.92;2.03;;;;;;;33.00;61.94;100664.34;20966182;28;20061;-77
2023/06/15 12:39:27;;;;;;;5.15;1.95;;;;;;;33.98;56.28;100652.66;20973177;28;20041;-78
2023/06/15 12:49:50;;;;;;;4.15;2.10;;;;;;;34.44;53.51;100622.22;20990800;28;20256;-77
2023/06/15 13:00:16;;;;;;;4.18;1.70;;;;;;;34.91;48.10;100585.16;20957826;28;20049;-78
2023/06/15 13:10:39;;;;;;;2.40;1.48;;;;;;;35.09;44.39;100566.19;20962972;28;20070;-78
2023/06/15 13:21:03;;;;;;;2.97;1.60;;;;;;;35.09;41.95;100599.13;20997439;28;20067;-77
2023/06/15 13:31:05;;;;;;;4.90;1.25;;;;;;;35.15;36.34;100606.81;21002387;28;20107;-78
2023/06/15 13:41:30;;;;;;;4.32;2.08;;;;;;;33.51;39.78;100607.25;20989618;28;20059;-78
2023/06/15 13:51:53;;;;;;;6.70;1.85;;;;;;;32.18;41.08;100625.16;20987794;28;20874;-77
2023/06/15 14:02:18;;;;;;;5.75;1.83;;;;;;;31.87;42.73;100632.03;20991259;28;20507;-77
2023/06/15 14:12:41;;;;;;;4.10;1.83;;;;;;;31.69;47.29;100627.97;20971381;28;20102;-77
2023/06/15 14:23:06;;;;;;;4.15;1.70;;;;;;;31.60;50.22;100623.16;20955166;28;20052;-77
2023/06/15 14:33:08;;;;;;;4.35;2.00;;;;;;;31.47;49.82;100604.06;20977605;28;20594;-77
2023/06/15 14:43:32;;;;;;;6.05;2.00;;;;;;;31.43;54.38;100588.91;20984611;28;20106;-77
2023/06/15 14:53:55;;;;;;;3.53;1.80;;;;;;;31.59;55.55;100574.97;20975126;28;20044;-77
2023/06/15 15:04:20;;;;;;;3.47;1.98;;;;;;;31.74;56.54;100584.78;20967181;28;20142;-77
2023/06/15 15:14:42;;;;;;;3.78;1.95;;;;;;;31.57;58.70;100571.50;20979603;28;20512;-78
2023/06/15 15:25:08;;;;;;;4.68;2.05;;;;;;;31.24;61.87;100589.38;20983712;28;20496;-76
2023/06/15 15:35:27;;;;;;;4.43;1.95;;;;;;;30.76;68.66;100582.00;20963118;28;20040;-77
2023/06/15 15:45:52;;;;;;;4.90;2.00;;;;;;;30.09;75.91;100595.69;20978464;28;20052;-78
2023/06/15 15:56:14;;;;;;;7.78;2.55;;;;;;;29.54;84.25;100586.72;20958981;28;20049;-77
2023/06/15 16:06:38;;;;;;;5.00;2.10;;;;;;;29.14;93.46;100588.44;20983417;28;20048;-77
2023/06/15 16:17:01;;;;;;;5.43;2.35;;;;;;;28.86;96.01;100589.31;20960727;28;20044;-76
2023/06/15 16:27:26;;;;;;;7.60;2.75;;;;;;;28.53;100.00;100581.38;20963688;28;20044;-78
2023/06/15 16:37:48;;;;;;;5.43;3.10;;;;;;;28.17;100.00;100581.75;20959711;28;20055;-77
2023/06/15 16:48:13;;;;;;;5.65;2.80;;;;;;;27.86;100.00;100557.38;20958427;28;20048;-77
2023/06/15 16:58:35;;;;;;;6.00;3.30;;;;;;;27.42;100.00;100563.53;20926431;28;20103;-77
2023/06/15 17:09:00;;;;;;;6.78;3.30;;;;;;;27.03;100.00;100565.78;20968668;28;20044;-77
2023/06/15 17:19:23;;;;;;;6.50;3.42;;;;;;;26.65;100.00;100574.13;20964633;28;20044;-77
2023/06/15 17:29:47;;;;;;;4.60;3.35;;;;;;;26.31;100.00;100544.41;20934190;28;20048;-78
2023/06/15 17:40:10;;;;;;;5.65;3.30;;;;;;;26.13;100.00;100568.72;20984332;28;20048;-77
2023/06/15 17:50:34;;;;;;;5.20;3.10;;;;;;;25.87;100.00;100566.47;20996882;28;20070;-78
2023/06/15 18:00:57;;;;;;;5.53;3.30;;;;;;;25.62;100.00;100595.69;20992326;28;20045;-77
2023/06/15 18:11:21;;;;;;;5.10;2.90;;;;;;;25.47;100.00;100593.75;20989201;28;20504;-78
2023/06/15 18:21:44;;;;;;;8.27;3.38;;;;;;;25.39;100.00;100583.28;20976223;28;20393;-78
2023/06/15 18:32:09;;;;;;;5.32;2.60;;;;;;;25.35;100.00;100560.91;20988199;28;20147;-76
2023/06/15 18:42:34;;;;;;;7.53;3.35;;;;;;;25.22;100.00;100561.59;20976541;28;20132;-77
2023/06/15 18:52:59;;;;;;;5.80;3.47;;;;;;;25.04;100.00;100544.44;20992010;28;20102;-77
2023/06/15 19:03:21;;;;;;;7.45;3.53;;;;;;;24.87;100.00;100530.81;20974879;28;20102;-78
2023/06/15 19:13:45;;;;;;;4.80;3.15;;;;;;;24.82;100.00;100532.84;20965716;28;20102;-78
2023/06/15 19:24:08;;;;;;;5.25;3.08;;;;;;;24.71;100.00;100486.56;20976077;28;20052;-77
2023/06/15 19:34:13;;;;;;;6.20;3.15;;;;;;;24.62;100.00;100447.38;20993640;28;20052;-77
2023/06/15 19:44:35;;;;;;;5.55;2.83;;;;;;;24.56;100.00;100463.88;20966467;28;20047;-77
2023/06/15 19:54:51;;;;;;;4.90;2.33;;;;;;;24.50;100.00;100442.56;20958728;28;20415;-78
2023/06/15 20:05:14;;;;;;;6.93;2.65;;;;;;;24.54;100.00;100420.78;20951356;28;20090;-77
2023/06/15 20:15:38;;;;;;;5.10;1.88;;;;;;;24.71;83.59;100392.06;20959645;28;20060;-77
2023/06/15 20:26:00;;;;;;;4.15;1.67;;;;;;;24.90;72.93;100374.94;20968120;28;20436;-77
2023/06/15 20:36:13;;;;;;;4.03;1.60;;;;;;;25.01;66.81;100367.16;20967765;28;20044;-77
2023/06/15 20:46:16;;;;;;;4.90;1.90;;;;;;;25.14;59.80;100356.59;20963709;28;20050;-77
2023/06/15 20:56:41;;;;;;;4.22;1.75;;;;;;;25.16;61.04;100351.13;20972321;28;20079;-78
2023/06/15 21:07:04;;;;;;;3.90;2.00;;;;;;;25.06;65.91;100344.44;20999412;28;20143;-77
2023/06/15 21:17:28;;;;;;;3.75;2.10;;;;;;;24.97;66.52;100308.84;20983430;28;20634;-78
2023/06/15 21:27:51;;;;;;;5.18;2.17;;;;;;;24.89;67.36;100286.75;20973913;28;20143;-77
2023/06/15 21:37:55;;;;;;;4.85;2.13;;;;;;;24.81;65.48;100291.63;21040181;28;20151;-78
2023/06/15 21:48:17;;;;;;;5.10;2.10;;;;;;;24.76;59.94;100287.41;20995375;28;20048;-78
2023/06/15 21:58:42;;;;;;;2.95;1.38;;;;;;;24.80;54.67;100272.81;21004694;28;20041;-77
2023/06/15 22:09:04;;;;;;;3.13;1.98;;;;;;;24.92;50.71;100273.09;21005247;28;20105;-78
2023/06/15 22:19:08;;;;;;;4.00;1.75;;;;;;;24.92;56.86;100281.19;20997925;28;20067;-79
2023/06/15 22:29:19;;;;;;;5.07;1.80;;;;;;;24.83;56.77;100256.44;20995142;28;20049;-79
2023/06/15 22:39:42;;;;;;;3.47;1.73;;;;;;;24.82;53.32;100239.38;20984658;28;20052;-79
2023/06/15 22:50:06;;;;;;;2.03;1.42;;;;;;;24.85;46.71;100214.03;20968705;28;20483;-77
2023/06/15 23:00:20;;;;;;;2.72;1.20;;;;;;;24.97;42.93;100186.41;20967128;28;20056;-77
2023/06/15 23:10:43;;;;;;;4.47;1.38;;;;;;;25.10;41.43;100168.59;20973359;28;20041;-77
2023/06/15 23:21:09;;;;;;;6.30;1.50;;;;;;;25.12;41.76;100122.59;20977066;28;20045;-77
2023/06/15 23:31:31;;;;;;;7.65;2.05;;;;;;;25.18;42.13;100109.63;20977074;28;20052;-78
2023/06/15 23:41:36;;;;;;;5.80;1.50;;;;;;;25.22;41.27;100097.69;20977169;28;20044;-78
2023/06/15 23:51:53;;;;;;;4.22;1.33;;;;;;;25.16;40.97;100106.13;20935196;28;20131;-78
